createdAt,value
2023-04-14T00:02:05.540Z,99804.38
2023-04-14T00:05:08.238Z,99811.44
2023-04-14T00:08:10.268Z,99807.88
2023-04-14T00:11:12.083Z,99807.88
2023-04-14T00:14:13.890Z,99807.81
2023-04-14T00:17:15.808Z,99807.03
2023-04-14T00:20:17.759Z,99807.88
2023-04-14T00:23:20.895Z,99809.53
2023-04-14T00:26:22.351Z,99802.66
2023-04-14T00:29:27.734Z,99795.72
2023-04-14T00:32:29.356Z,99795.72
2023-04-14T00:35:32.287Z,99795.78
2023-04-14T00:38:34.315Z,99793.34
2023-04-14T00:41:36.715Z,99794.41
2023-04-14T00:44:38.559Z,99790.88
2023-04-14T00:47:42.582Z,99785.91
2023-04-14T00:50:45.655Z,99786.88
2023-04-14T00:53:47.082Z,99791.50
2023-04-14T00:56:54.382Z,99788.44
2023-04-14T01:00:19.144Z,99797.97
2023-04-14T01:03:23.170Z,99794.47
2023-04-14T01:06:27.043Z,99792.69
2023-04-14T01:09:28.958Z,99799.88
2023-04-14T01:12:59.695Z,99799.34
2023-04-14T01:16:09.596Z,99804.50
2023-04-14T01:19:39.322Z,99802.75
2023-04-14T01:22:58.310Z,99806.28
2023-04-14T01:26:18.250Z,99801.91
2023-04-14T01:29:41.856Z,99800.13
2023-04-14T01:32:46.600Z,99801.28
2023-04-14T01:36:02.750Z,99822.34
2023-04-14T01:39:08.669Z,99814.78
2023-04-14T01:42:18.724Z,99823.38
2023-04-14T01:45:25.182Z,99822.38
2023-04-14T01:48:28.273Z,99816.22
2023-04-14T01:51:33.197Z,99820.50
2023-04-14T01:54:38.900Z,99817.97
2023-04-14T01:57:44.087Z,99819.84
2023-04-14T02:00:49.270Z,99825.97
2023-04-14T02:03:51.393Z,99824.13
2023-04-14T02:06:55.275Z,99821.59
2023-04-14T02:09:58.423Z,99833.94
2023-04-14T02:13:02.882Z,99833.22
2023-04-14T02:16:06.543Z,99839.50
2023-04-14T02:19:09.343Z,99840.53
2023-04-14T02:22:11.132Z,99839.72
2023-04-14T02:25:16.208Z,99849.44
2023-04-14T02:28:27.658Z,99843.59
2023-04-14T02:31:33.594Z,99862.88
2023-04-14T02:34:41.345Z,99854.03
2023-04-14T02:37:47.494Z,99854.78
2023-04-14T02:40:51.587Z,99858.31
2023-04-14T02:44:07.281Z,99859.28
2023-04-14T02:47:15.717Z,99859.22
2023-04-14T02:50:42.775Z,99864.44
2023-04-14T02:53:50.394Z,99872.38
2023-04-14T02:57:08.854Z,99874.19
2023-04-14T03:00:15.144Z,99874.34
2023-04-14T03:03:24.546Z,99868.19
2023-04-14T03:06:27.615Z,99874.34
2023-04-14T03:09:31.928Z,99871.00
2023-04-14T03:12:36.431Z,99871.00
2023-04-14T03:15:39.069Z,99864.91
2023-04-14T03:18:40.874Z,99868.28
2023-04-14T03:21:42.924Z,99864.81
2023-04-14T03:24:45.694Z,99857.94
2023-04-14T03:27:48.643Z,99867.53
2023-04-14T03:34:26.624Z,99868.66
2023-04-14T03:37:33.415Z,99874.94
2023-04-14T03:40:38.424Z,99874.19
2023-04-14T03:43:42.507Z,99873.34
2023-04-14T03:46:49.307Z,99873.34
2023-04-14T03:49:57.515Z,99873.41
2023-04-14T03:53:06.344Z,99871.97
2023-04-14T03:56:32.407Z,99877.25
2023-04-14T04:03:22.854Z,99880.72
2023-04-14T04:06:25.709Z,99879.09
2023-04-14T04:09:29.854Z,99881.75
2023-04-14T04:12:33.083Z,99886.19
2023-04-14T04:15:39.210Z,99886.16
2023-04-14T04:18:46.839Z,99881.75
2023-04-14T04:21:52.994Z,99880.00
2023-04-14T04:24:56.415Z,99886.94
2023-04-14T04:28:03.641Z,99892.97
2023-04-14T04:31:06.778Z,99885.22
2023-04-14T04:34:09.703Z,99891.41
2023-04-14T04:37:14.003Z,99888.81
2023-04-14T04:40:16.019Z,99894.94
2023-04-14T04:43:19.543Z,99894.13
2023-04-14T04:46:46.157Z,99900.16
2023-04-14T04:49:50.151Z,99900.13
2023-04-14T04:52:51.963Z,99900.81
2023-04-14T04:55:53.741Z,99900.69
2023-04-14T04:58:55.506Z,99909.41
2023-04-14T05:01:57.407Z,99905.97
2023-04-14T05:04:59.354Z,99905.91
2023-04-14T05:08:01.310Z,99911.16
2023-04-14T05:11:03.798Z,99912.91
2023-04-14T05:14:05.205Z,99906.84
2023-04-14T05:17:07.154Z,99915.50
2023-04-14T05:20:09.841Z,99909.56
2023-04-14T05:23:13.314Z,99911.09
2023-04-14T05:29:42.740Z,99912.66
2023-04-14T05:32:46.987Z,99910.88
2023-04-14T05:35:50.987Z,99919.56
2023-04-14T05:38:52.809Z,99919.66
2023-04-14T05:41:55.267Z,99926.84
2023-04-14T05:44:56.790Z,99917.09
2023-04-14T05:47:59.292Z,99929.38
2023-04-14T05:51:00.858Z,99925.91
2023-04-14T05:54:03.186Z,99919.06
2023-04-14T05:57:05.559Z,99916.38
2023-04-14T06:00:08.402Z,99928.28
2023-04-14T06:03:16.604Z,99931.88
2023-04-14T06:06:20.042Z,99930.81
2023-04-14T06:09:22.733Z,99934.22
2023-04-14T06:12:24.549Z,99932.28
2023-04-14T06:15:29.457Z,99937.47
2023-04-14T06:18:32.641Z,99943.53
2023-04-14T06:21:35.152Z,99940.84
2023-04-14T06:24:36.962Z,99940.50
2023-04-14T06:27:38.447Z,99935.88
2023-04-14T06:30:42.865Z,99937.53
2023-04-14T06:33:46.071Z,99944.63
2023-04-14T06:36:47.909Z,99932.97
2023-04-14T06:39:50.771Z,99930.38
2023-04-14T06:42:52.388Z,99938.59
2023-04-14T06:45:54.300Z,99949.50
2023-04-14T06:48:58.116Z,99931.66
2023-04-14T06:51:59.974Z,99933.16
2023-04-14T06:55:01.972Z,99939.63
2023-04-14T06:58:04.129Z,99934.78
2023-04-14T07:01:06.064Z,99931.13
2023-04-14T07:04:08.948Z,99930.91
2023-04-14T07:07:10.842Z,99922.09
2023-04-14T07:10:12.962Z,99921.16
2023-04-14T07:13:15.490Z,99922.94
2023-04-14T07:16:17.434Z,99916.56
2023-04-14T07:19:19.666Z,99923.03
2023-04-14T07:22:22.212Z,99920.31
2023-04-14T07:25:24.715Z,99921.56
2023-04-14T07:28:28.018Z,99910.53
2023-04-14T07:31:34.352Z,99916.19
2023-04-14T07:34:35.847Z,99913.84
2023-04-14T07:37:38.888Z,99895.97
2023-04-14T07:40:41.806Z,99903.94
2023-04-14T07:43:43.950Z,99895.56
2023-04-14T07:46:45.734Z,99897.16
2023-04-14T07:49:47.773Z,99898.56
2023-04-14T07:52:49.328Z,99887.22
2023-04-14T07:55:51.009Z,99894.16
2023-04-14T07:58:52.655Z,99896.78
2023-04-14T08:01:54.475Z,99894.38
2023-04-14T08:04:56.761Z,99899.16
2023-04-14T08:07:58.245Z,99891.22
2023-04-14T08:11:00.257Z,99885.53
2023-04-14T08:14:01.996Z,99887.56
2023-04-14T08:17:03.740Z,99890.97
2023-04-14T08:20:06.165Z,99887.66
2023-04-14T08:23:07.641Z,99881.53
2023-04-14T08:26:09.458Z,99879.31
2023-04-14T08:29:11.137Z,99886.00
2023-04-14T08:32:12.880Z,99887.09
2023-04-14T08:35:37.165Z,99885.84
2023-04-14T08:38:36.965Z,99884.16
2023-04-14T08:41:39.481Z,99883.97
2023-04-14T08:44:41.246Z,99885.28
2023-04-14T08:47:45.802Z,99879.91
2023-04-14T08:51:14.304Z,99887.47
2023-04-14T08:54:16.341Z,99876.81
2023-04-14T08:57:20.011Z,99875.22
2023-04-14T09:00:22.710Z,99877.91
2023-04-14T09:03:25.505Z,99873.09
2023-04-14T09:06:27.986Z,99872.53
2023-04-14T09:09:31.163Z,99868.63
2023-04-14T09:12:33.734Z,99860.66
2023-04-14T09:15:38.086Z,99860.94
2023-04-14T09:18:40.574Z,99858.38
2023-04-14T09:21:51.673Z,99855.25
2023-04-14T09:24:55.533Z,99855.22
2023-04-14T09:27:57.174Z,99852.03
2023-04-14T09:30:59.176Z,99849.47
2023-04-14T09:34:01.322Z,99842.31
2023-04-14T09:37:07.998Z,99840.59
2023-04-14T09:40:10.159Z,99844.19
2023-04-14T09:43:24.020Z,99840.00
2023-04-14T09:46:26.143Z,99838.84
2023-04-14T09:49:29.442Z,99833.28
2023-04-14T09:52:41.901Z,99828.63
2023-04-14T09:55:45.397Z,99827.28
2023-04-14T09:58:48.903Z,99828.31
2023-04-14T10:01:50.714Z,99831.72
2023-04-14T10:05:06.449Z,99829.00
2023-04-14T10:08:07.978Z,99822.25
2023-04-14T10:11:32.697Z,99814.66
2023-04-14T10:14:36.154Z,99821.75
2023-04-14T10:17:38.964Z,99819.56
2023-04-14T10:20:41.603Z,99824.53
2023-04-14T10:23:44.088Z,99815.78
2023-04-14T10:26:48.174Z,99814.84
2023-04-14T10:29:49.583Z,99807.38
2023-04-14T10:32:51.337Z,99804.72
2023-04-14T10:35:59.335Z,99803.78
2023-04-14T10:39:03.702Z,99796.25
2023-04-14T10:42:05.633Z,99801.50
2023-04-14T10:45:08.479Z,99796.81
2023-04-14T10:48:11.629Z,99786.22
2023-04-14T10:51:16.233Z,99787.41
2023-04-14T10:54:21.808Z,99787.97
2023-04-14T10:57:25.313Z,99772.25
2023-04-14T11:00:28.892Z,99773.06
2023-04-14T11:03:33.907Z,99760.78
2023-04-14T11:06:48.201Z,99757.31
2023-04-14T11:09:49.883Z,99758.03
2023-04-14T11:13:06.090Z,99748.34
2023-04-14T11:16:08.173Z,99743.44
2023-04-14T11:19:17.489Z,99739.81
2023-04-14T11:22:42.272Z,99732.63
2023-04-14T11:25:45.451Z,99730.75
2023-04-14T11:28:47.573Z,99729.78
2023-04-14T11:32:01.424Z,99725.59
2023-04-14T11:35:09.536Z,99719.53
2023-04-14T11:38:11.290Z,99707.16
2023-04-14T11:41:15.560Z,99708.16
2023-04-14T11:44:20.878Z,99698.53
2023-04-14T11:47:22.377Z,99711.88
2023-04-14T11:50:23.957Z,99697.38
2023-04-14T11:53:26.082Z,99700.69
2023-04-14T11:56:28.557Z,99697.75
2023-04-14T11:59:30.475Z,99693.97
2023-04-14T12:02:32.146Z,99681.22
2023-04-14T12:05:35.444Z,99685.97
2023-04-14T12:08:37.518Z,99671.31
2023-04-14T12:11:39.264Z,99671.91
2023-04-14T12:14:43.937Z,99679.31
2023-04-14T12:17:45.752Z,99670.22
2023-04-14T12:20:54.888Z,99667.88
2023-04-14T12:23:56.573Z,99668.69
2023-04-14T12:26:58.233Z,99665.91
2023-04-14T12:29:59.867Z,99667.22
2023-04-14T12:33:14.112Z,99655.09
2023-04-14T12:36:15.821Z,99651.06
2023-04-14T12:39:17.833Z,99648.25
2023-04-14T12:42:20.105Z,99641.75
2023-04-14T12:45:21.634Z,99631.09
2023-04-14T12:48:38.985Z,99627.94
2023-04-14T12:51:41.621Z,99627.31
2023-04-14T12:54:51.989Z,99627.09
2023-04-14T12:57:54.651Z,99621.75
2023-04-14T13:00:56.527Z,99612.13
2023-04-14T13:03:58.560Z,99607.25
2023-04-14T13:07:00.307Z,99603.72
2023-04-14T13:10:02.573Z,99594.72
2023-04-14T13:13:04.599Z,99603.03
2023-04-14T13:16:15.271Z,99591.03
2023-04-14T13:19:18.232Z,99588.88
2023-04-14T13:22:19.930Z,99588.41
2023-04-14T13:25:21.853Z,99575.97
2023-04-14T13:28:24.031Z,99578.22
2023-04-14T13:31:25.748Z,99571.25
2023-04-14T13:34:28.398Z,99570.81
2023-04-14T13:37:29.804Z,99568.50
2023-04-14T13:40:31.472Z,99573.88
2023-04-14T13:43:33.596Z,99558.34
2023-04-14T13:46:40.836Z,99561.41
2023-04-14T13:49:43.094Z,99565.59
2023-04-14T13:52:44.795Z,99562.66
2023-04-14T13:55:46.477Z,99558.34
2023-04-14T13:58:48.606Z,99551.53
2023-04-14T14:01:50.393Z,99546.56
2023-04-14T14:04:52.253Z,99545.44
2023-04-14T14:07:54.044Z,99540.41
2023-04-14T14:10:55.842Z,99530.34
2023-04-14T14:13:58.223Z,99525.03
2023-04-14T14:16:59.900Z,99521.16
2023-04-14T14:20:02.006Z,99514.31
2023-04-14T14:23:03.415Z,99518.22
2023-04-14T14:26:05.131Z,99520.66
2023-04-14T14:29:06.824Z,99519.22
2023-04-14T14:32:08.545Z,99516.47
2023-04-14T14:35:10.739Z,99508.53
2023-04-14T14:38:12.153Z,99511.09
2023-04-14T14:41:14.437Z,99502.25
2023-04-14T14:44:16.097Z,99508.34
2023-04-14T14:47:18.787Z,99513.72
2023-04-14T14:50:20.531Z,99506.56
2023-04-14T14:53:22.207Z,99509.66
2023-04-14T14:56:24.268Z,99504.72
2023-04-14T14:59:26.209Z,99512.72
2023-04-14T15:02:27.969Z,99499.50
2023-04-14T15:05:30.078Z,99501.75
2023-04-14T15:08:31.738Z,99488.94
2023-04-14T15:11:33.434Z,99493.72
2023-04-14T15:14:35.160Z,99484.94
2023-04-14T15:17:37.508Z,99492.22
2023-04-14T15:20:41.185Z,99491.50
2023-04-14T15:23:44.589Z,99497.72
2023-04-14T15:26:46.228Z,99496.72
2023-04-14T15:29:48.045Z,99500.59
2023-04-14T15:32:50.865Z,99499.88
2023-04-14T15:35:52.370Z,99493.34
2023-04-14T15:38:54.538Z,99494.78
2023-04-14T15:41:56.940Z,99494.06
2023-04-14T15:44:58.756Z,99495.63
2023-04-14T15:48:02.136Z,99493.81
2023-04-14T15:51:04.988Z,99495.25
2023-04-14T15:54:07.166Z,99504.13
2023-04-14T15:57:08.619Z,99499.38
2023-04-14T16:00:11.060Z,99490.22
2023-04-14T16:03:18.637Z,99494.69
2023-04-14T16:06:20.506Z,99487.72
2023-04-14T16:09:22.796Z,99494.91
2023-04-14T16:12:24.627Z,99493.44
2023-04-14T16:15:27.244Z,99500.38
2023-04-14T16:18:28.689Z,99498.53
2023-04-14T16:21:30.694Z,99499.41
2023-04-14T16:24:32.094Z,99505.94
2023-04-14T16:27:34.104Z,99502.31
2023-04-14T16:30:37.215Z,99498.31
2023-04-14T16:33:39.413Z,99490.41
2023-04-14T16:36:41.392Z,99491.38
2023-04-14T16:39:43.269Z,99496.84
2023-04-14T16:42:49.193Z,99497.50
2023-04-14T16:45:51.752Z,99504.00
2023-04-14T16:48:53.651Z,99498.84
2023-04-14T16:51:57.762Z,99498.19
2023-04-14T16:54:59.488Z,99494.97
2023-04-14T16:58:02.122Z,99492.13
2023-04-14T17:01:06.036Z,99507.50
2023-04-14T17:04:07.950Z,99496.13
2023-04-14T17:07:10.291Z,99500.25
2023-04-14T17:10:12.662Z,99494.50
2023-04-14T17:13:14.634Z,99498.59
2023-04-14T17:16:16.613Z,99501.69
2023-04-14T17:19:18.815Z,99501.16
2023-04-14T17:22:23.008Z,99499.22
2023-04-14T17:25:26.457Z,99499.38
2023-04-14T17:28:28.730Z,99502.66
2023-04-14T17:31:30.848Z,99499.78
2023-04-14T17:34:33.115Z,99497.34
2023-04-14T17:37:35.320Z,99507.75
2023-04-14T17:40:37.216Z,99503.72
2023-04-14T17:43:39.464Z,99505.00
2023-04-14T17:46:41.380Z,99499.03
2023-04-14T17:49:43.862Z,99504.50
2023-04-14T17:52:54.714Z,99494.91
2023-04-14T17:55:57.576Z,99506.16
2023-04-14T17:58:59.925Z,99501.56
2023-04-14T18:02:02.161Z,99498.00
2023-04-14T18:05:07.774Z,99500.28
2023-04-14T18:08:09.574Z,99503.63
2023-04-14T18:11:12.951Z,99511.03
2023-04-14T18:14:15.312Z,99498.56
2023-04-14T18:17:17.627Z,99509.69
2023-04-14T18:20:24.679Z,99507.22
2023-04-14T18:23:26.615Z,99507.03
2023-04-14T18:26:28.749Z,99506.56
2023-04-14T18:29:30.339Z,99520.28
2023-04-14T18:32:32.269Z,99512.47
2023-04-14T18:35:34.205Z,99523.63
2023-04-14T18:38:36.235Z,99522.84
2023-04-14T18:41:38.391Z,99527.16
2023-04-14T18:44:40.232Z,99526.72
2023-04-14T18:47:43.034Z,99528.94
2023-04-14T18:50:45.704Z,99525.44
2023-04-14T18:53:48.583Z,99532.09
2023-04-14T18:56:50.604Z,99534.09
2023-04-14T18:59:52.388Z,99539.53
2023-04-14T19:02:54.613Z,99539.88
2023-04-14T19:05:56.523Z,99533.06
2023-04-14T19:08:58.393Z,99538.88
2023-04-14T19:12:03.481Z,99544.38
2023-04-14T19:15:06.510Z,99543.25
2023-04-14T19:18:10.276Z,99544.69
2023-04-14T19:21:12.235Z,99550.31
2023-04-14T19:24:14.099Z,99549.16
2023-04-14T19:27:15.574Z,99553.91
2023-04-14T19:30:18.420Z,99565.31
2023-04-14T19:33:20.820Z,99571.72
2023-04-14T19:36:22.778Z,99572.47
2023-04-14T19:39:24.184Z,99565.50
2023-04-14T19:42:26.621Z,99571.84
2023-04-14T19:45:28.414Z,99570.78
2023-04-14T19:48:32.276Z,99565.50
2023-04-14T19:51:55.292Z,99565.81
2023-04-14T19:54:57.346Z,99561.44
2023-04-14T19:57:59.172Z,99560.53
2023-04-14T20:01:01.142Z,99559.03
2023-04-14T20:04:10.532Z,99554.53
2023-04-14T20:07:15.286Z,99557.25
2023-04-14T20:10:17.504Z,99555.69
2023-04-14T20:13:21.528Z,99558.19
2023-04-14T20:16:24.383Z,99564.53
2023-04-14T20:19:26.687Z,99565.75
2023-04-14T20:22:28.068Z,99560.22
2023-04-14T20:25:30.252Z,99551.13
2023-04-14T20:28:32.058Z,99551.56
2023-04-14T20:31:34.897Z,99556.97
2023-04-14T20:34:37.237Z,99546.88
2023-04-14T20:37:39.047Z,99550.03
2023-04-14T20:40:41.341Z,99549.31
2023-04-14T20:43:43.490Z,99545.75
2023-04-14T20:46:45.293Z,99546.66
2023-04-14T20:49:47.445Z,99552.56
2023-04-14T20:52:50.510Z,99544.88
2023-04-14T20:55:53.198Z,99551.47
2023-04-14T20:58:55.998Z,99543.03
2023-04-14T21:01:57.839Z,99557.28
2023-04-14T21:04:59.661Z,99554.50
2023-04-14T21:08:02.053Z,99549.53
2023-04-14T21:11:15.351Z,99554.56
2023-04-14T21:15:30.356Z,99556.66
2023-04-14T21:18:02.447Z,99556.66
2023-04-14T21:21:05.913Z,99561.31
2023-04-14T21:24:08.256Z,99565.66
2023-04-14T21:27:10.195Z,99557.56
2023-04-14T21:30:12.421Z,99562.56
2023-04-14T21:33:14.259Z,99562.72
2023-04-14T21:36:19.635Z,99568.25
2023-04-14T21:39:22.218Z,99557.34
2023-04-14T21:42:25.712Z,99558.13
2023-04-14T21:45:28.266Z,99556.47
2023-04-14T21:48:30.080Z,99564.69
2023-04-14T21:51:32.240Z,99565.97
2023-04-14T21:54:35.086Z,99565.38
2023-04-14T21:57:43.567Z,99559.53
2023-04-14T22:00:51.372Z,99562.66
2023-04-14T22:03:54.281Z,99561.03
2023-04-14T22:06:57.955Z,99561.81
2023-04-14T22:09:59.820Z,99562.34
2023-04-14T22:13:01.433Z,99562.22
2023-04-14T22:16:04.083Z,99562.63
2023-04-14T22:19:05.515Z,99571.28
2023-04-14T22:22:07.457Z,99562.19
2023-04-14T22:25:10.088Z,99566.66
2023-04-14T22:28:11.470Z,99566.47
2023-04-14T22:31:13.621Z,99570.41
2023-04-14T22:34:15.734Z,99568.78
2023-04-14T22:37:17.995Z,99575.00
2023-04-14T22:40:20.226Z,99576.19
2023-04-14T22:43:25.378Z,99580.28
2023-04-14T22:46:27.680Z,99579.94
2023-04-14T22:49:29.116Z,99584.50
2023-04-14T22:52:30.994Z,99582.22
2023-04-14T22:55:33.254Z,99578.59
2023-04-14T22:58:39.941Z,99573.28
2023-04-14T23:01:42.153Z,99576.53
2023-04-14T23:04:44.034Z,99577.09
2023-04-14T23:07:46.472Z,99587.31
2023-04-14T23:10:48.250Z,99587.25
2023-04-14T23:13:50.544Z,99584.28
2023-04-14T23:16:52.492Z,99587.78
2023-04-14T23:19:54.352Z,99595.75
2023-04-14T23:22:56.148Z,99600.69
2023-04-14T23:25:58.038Z,99597.78
2023-04-14T23:29:00.567Z,99599.22
2023-04-14T23:32:02.547Z,99604.38
2023-04-14T23:35:05.511Z,99595.59
2023-04-14T23:38:07.973Z,99598.38
2023-04-14T23:41:09.661Z,99590.66
2023-04-14T23:44:11.525Z,99593.47
2023-04-14T23:47:13.618Z,99596.16
2023-04-14T23:50:15.496Z,99592.97
2023-04-14T23:53:17.579Z,99582.72
2023-04-14T23:56:19.896Z,99585.78
2023-04-14T23:59:21.772Z,99573.72
